Terminal Aerodrome Forecast
Issued by NWS Sterling, VA

Current Version | Previous Version | Text Only | Print | Product List | Glossary On
Versions: 1 2 3 4 5 6 7 8 9 10 11 12 13 14 15 16 17 18 19 20 21 22 23
000
FTUS41 KLWX 012327
TAFMRB
TAF
KMRB 012327Z 0200/0224 11005KT P6SM BKN008 OVC015
     FM020200 VRB03KT 5SM -SHRA BR OVC003
     FM020600 VRB03KT 3/4SM BR OVC003
     FM021300 21006KT 5SM BR BKN015
     FM021400 23008KT P6SM BKN050
     FM022000 27009KT P6SM BKN050 BKN100=

USA.gov is the U.S. government's official web portal to all federal, state and local government web resources and services.